createdAt,value
2019-05-19T00:00:20.966Z,41.3
2019-05-19T00:01:17.792Z,41.3
2019-05-19T00:02:14.678Z,41.3
2019-05-19T00:03:12.417Z,41.3
2019-05-19T00:04:10.396Z,41.3
2019-05-19T00:05:10.021Z,41.3
2019-05-19T00:06:07.603Z,41.3
2019-05-19T00:07:05.468Z,41.3
2019-05-19T00:08:03.918Z,41.3
2019-05-19T00:09:06.582Z,41.3
2019-05-19T00:10:06.673Z,41.3
2019-05-19T00:11:03.404Z,41.3
2019-05-19T00:12:00.184Z,41.3
2019-05-19T00:12:59.614Z,41.2
2019-05-19T00:14:02.048Z,41.2
2019-05-19T00:15:02.670Z,41.2
2019-05-19T00:15:59.441Z,41.2
2019-05-19T00:17:08.299Z,41.3
2019-05-19T00:18:05.534Z,41.2
2019-05-19T00:19:04.683Z,41.3
2019-05-19T00:20:08.836Z,41.3
2019-05-19T00:21:14.093Z,41.3
2019-05-19T00:22:12.699Z,41.3
2019-05-19T00:23:10.365Z,41.3
2019-05-19T00:24:09.534Z,41.2
2019-05-19T00:24:44.365Z,41.2
2019-05-19T00:25:43.134Z,41.2
2019-05-19T00:26:41.321Z,41.2
2019-05-19T00:27:40.500Z,41.2
2019-05-19T00:28:41.946Z,41.2
2019-05-19T00:29:39.204Z,41.2
2019-05-19T00:30:36.304Z,41.2
2019-05-19T00:31:34.817Z,41.2
2019-05-19T00:32:31.605Z,41.2
2019-05-19T00:33:28.433Z,41.2
2019-05-19T00:34:31.650Z,41.2
2019-05-19T00:35:32.637Z,41.2
2019-05-19T00:36:31.195Z,41.2
2019-05-19T00:37:30.212Z,41.2
2019-05-19T00:38:27.686Z,41.2
2019-05-19T00:39:24.454Z,41.2
2019-05-19T00:40:21.442Z,41.1
2019-05-19T00:41:19.676Z,41.1
2019-05-19T00:42:21.296Z,41.1
2019-05-19T00:43:24.836Z,41.1
2019-05-19T00:44:25.669Z,41.2
2019-05-19T00:45:23.513Z,41.2
2019-05-19T00:46:24.970Z,41.1
2019-05-19T00:47:28.544Z,41.1
2019-05-19T00:48:26.790Z,41.1
2019-05-19T00:49:24.793Z,41.1
2019-05-19T00:50:21.780Z,41.1
2019-05-19T00:51:21.725Z,41.1
2019-05-19T00:52:20.659Z,41.1
2019-05-19T00:53:20.189Z,41.1
2019-05-19T00:54:18.378Z,41.1
2019-05-19T00:55:16.617Z,41.1
2019-05-19T00:56:25.433Z,41.1
2019-05-19T00:57:25.523Z,41.1
2019-05-19T00:58:23.223Z,41.1
2019-05-19T00:59:20.046Z,41.1
2019-05-19T01:00:22.165Z,41.1
2019-05-19T01:01:20.043Z,41.1
2019-05-19T01:02:18.123Z,41.1
2019-05-19T01:03:16.938Z,41.1
2019-05-19T01:04:14.016Z,41.1
2019-05-19T01:05:13.681Z,41.1
2019-05-19T01:06:10.701Z,41.1
2019-05-19T01:07:10.261Z,41.1
2019-05-19T01:08:08.070Z,41.1
2019-05-19T01:09:05.475Z,41.1
2019-05-19T01:10:04.108Z,41.1
2019-05-19T01:11:00.806Z,41.1
2019-05-19T01:11:58.380Z,41.1
2019-05-19T01:12:56.549Z,41.1
2019-05-19T01:13:57.567Z,41.1
2019-05-19T01:14:54.450Z,41
2019-05-19T01:15:51.928Z,41.1
2019-05-19T01:16:49.154Z,41.1
2019-05-19T01:17:50.576Z,41.1
2019-05-19T01:18:47.625Z,41.1
2019-05-19T01:19:55.662Z,41.1
2019-05-19T01:19:55.905Z,41.1
2019-05-19T01:20:44.861Z,41.1
2019-05-19T01:21:54.642Z,41.1
2019-05-19T01:22:51.797Z,41.1
2019-05-19T01:23:49.303Z,41.1
2019-05-19T01:24:46.516Z,41.1
2019-05-19T01:25:50.388Z,41.1
2019-05-19T01:26:47.304Z,41
2019-05-19T01:27:51.567Z,41.1
2019-05-19T01:28:52.009Z,41
2019-05-19T01:29:50.464Z,41.1
2019-05-19T01:30:49.440Z,41.1
2019-05-19T01:31:46.340Z,41.1
2019-05-19T01:32:43.060Z,41.1
2019-05-19T01:33:41.601Z,41
2019-05-19T01:34:38.909Z,41.1
2019-05-19T01:35:40.505Z,41.1
2019-05-19T01:36:37.241Z,41.1
2019-05-19T01:37:37.323Z,41.1
2019-05-19T01:38:35.336Z,41.1
2019-05-19T01:39:32.794Z,41.1
2019-05-19T01:40:31.709Z,41.1
2019-05-19T01:41:36.582Z,41
2019-05-19T01:42:33.407Z,41.1
2019-05-19T01:43:30.280Z,41.1
2019-05-19T01:44:45.049Z,41.1
2019-05-19T01:45:42.033Z,41.1
2019-05-19T01:46:42.100Z,41.1
2019-05-19T01:47:39.141Z,41.1
2019-05-19T01:48:42.449Z,41.1
2019-05-19T01:49:40.196Z,41.1
2019-05-19T01:50:37.242Z,41.1
2019-05-19T01:51:34.181Z,41.1
2019-05-19T01:52:47.566Z,41.1
2019-05-19T01:53:50.455Z,41.1
2019-05-19T01:54:51.329Z,41.1
2019-05-19T01:55:49.240Z,41.1
2019-05-19T01:56:48.259Z,41.1
2019-05-19T01:57:44.992Z,41
2019-05-19T01:58:44.343Z,41
2019-05-19T01:59:43.817Z,41
2019-05-19T02:00:48.545Z,41
2019-05-19T02:01:45.845Z,41
2019-05-19T02:02:44.561Z,41
2019-05-19T02:03:41.579Z,41
2019-05-19T02:04:39.011Z,41.1
2019-05-19T02:05:37.117Z,41.1
2019-05-19T02:06:39.167Z,41.1
2019-05-19T02:07:40.238Z,41.1
2019-05-19T02:08:37.382Z,41.1
2019-05-19T02:09:36.686Z,41
2019-05-19T02:10:38.731Z,41
2019-05-19T02:11:35.996Z,41.1
2019-05-19T02:12:34.502Z,41.1
2019-05-19T02:13:32.236Z,41
2019-05-19T02:14:30.852Z,41
2019-05-19T02:15:28.494Z,41.1
2019-05-19T02:16:27.031Z,41
2019-05-19T02:17:26.110Z,41
2019-05-19T02:18:22.763Z,41
2019-05-19T02:19:24.727Z,41
2019-05-19T02:20:32.665Z,41.1
2019-05-19T02:20:33.357Z,41.1
2019-05-19T02:20:33.725Z,41.1
2019-05-19T02:21:20.839Z,41.1
2019-05-19T02:22:17.971Z,41
2019-05-19T02:23:15.087Z,41
2019-05-19T02:24:13.130Z,41.1
2019-05-19T02:25:12.262Z,41.1
2019-05-19T02:26:09.936Z,41.1
2019-05-19T02:27:10.052Z,41.1
2019-05-19T02:28:11.964Z,41.1
2019-05-19T02:29:10.939Z,40.9
2019-05-19T02:30:07.884Z,41
2019-05-19T02:31:05.789Z,40.9
2019-05-19T02:32:03.224Z,40.9
2019-05-19T02:33:03.338Z,41
2019-05-19T02:34:00.152Z,40.9
2019-05-19T02:35:01.879Z,41
2019-05-19T02:35:59.547Z,41
2019-05-19T02:36:58.838Z,41
2019-05-19T02:37:59.713Z,41
2019-05-19T02:39:04.273Z,40.9
2019-05-19T02:40:01.698Z,40.9
2019-05-19T02:41:01.157Z,40.9
2019-05-19T02:41:58.742Z,40.9
2019-05-19T02:43:10.889Z,40.9
2019-05-19T02:44:08.110Z,40.9
2019-05-19T02:45:07.154Z,40.9
2019-05-19T02:46:04.600Z,40.9
2019-05-19T02:47:06.647Z,40.9
2019-05-19T02:48:05.628Z,40.9
2019-05-19T02:49:02.796Z,40.9
2019-05-19T02:50:02.726Z,40.9
2019-05-19T02:51:01.815Z,40.9
2019-05-19T02:51:58.537Z,40.9
2019-05-19T02:52:55.996Z,40.9
2019-05-19T02:53:52.644Z,40.9
2019-05-19T02:54:51.072Z,40.9
2019-05-19T02:55:51.281Z,40.9
2019-05-19T02:56:50.629Z,40.9
2019-05-19T02:57:48.459Z,40.9
2019-05-19T02:58:45.120Z,40.9
2019-05-19T02:59:43.187Z,40.9
2019-05-19T03:00:41.230Z,40.9
2019-05-19T03:01:38.553Z,40.9
2019-05-19T03:02:37.454Z,40.9
2019-05-19T03:03:34.577Z,40.9
2019-05-19T03:04:34.076Z,40.9
2019-05-19T03:05:33.549Z,40.9
2019-05-19T03:06:37.145Z,40.9
2019-05-19T03:07:36.350Z,40.9
2019-05-19T03:08:38.775Z,40.9
2019-05-19T03:09:35.766Z,40.9
2019-05-19T03:10:32.529Z,40.9
2019-05-19T03:11:30.780Z,40.9
2019-05-19T03:12:29.848Z,40.9
2019-05-19T03:13:27.586Z,40.9
2019-05-19T03:14:24.241Z,40.9
2019-05-19T03:15:20.861Z,40.9
2019-05-19T03:16:22.242Z,40.9
2019-05-19T03:17:22.330Z,40.9
2019-05-19T03:18:22.842Z,40.9
2019-05-19T03:19:23.393Z,40.9
2019-05-19T03:20:21.210Z,40.9
2019-05-19T03:21:22.992Z,40.9
2019-05-19T03:22:23.580Z,40.9
2019-05-19T03:23:22.446Z,40.9
2019-05-19T03:24:24.893Z,40.9
2019-05-19T03:25:21.942Z,40.9
2019-05-19T03:26:18.591Z,40.9
2019-05-19T03:27:16.957Z,40.9
2019-05-19T03:28:16.629Z,40.9
2019-05-19T03:29:15.727Z,40.9
2019-05-19T03:30:21.639Z,40.9
2019-05-19T03:31:20.992Z,40.9
2019-05-19T03:32:22.208Z,40.9
2019-05-19T03:33:19.525Z,40.9
2019-05-19T03:34:16.186Z,40.9
2019-05-19T03:35:15.980Z,40.9
2019-05-19T03:36:12.599Z,40.9
2019-05-19T03:37:11.302Z,40.9
2019-05-19T03:38:09.068Z,40.9
2019-05-19T03:39:09.955Z,40.9
2019-05-19T03:40:06.964Z,40.9
2019-05-19T03:41:04.367Z,40.9
2019-05-19T03:42:03.933Z,40.9
2019-05-19T03:43:02.192Z,40.9
2019-05-19T03:43:58.913Z,40.9
2019-05-19T03:45:00.160Z,40.9
2019-05-19T03:45:57.164Z,40.9
2019-05-19T03:46:53.760Z,40.9
2019-05-19T03:47:56.245Z,40.9
2019-05-19T03:48:52.981Z,40.9
2019-05-19T03:49:54.744Z,40.9
2019-05-19T03:50:51.939Z,40.9
2019-05-19T03:51:53.243Z,40.9
2019-05-19T03:52:51.218Z,40.9
2019-05-19T03:53:52.629Z,40.9
2019-05-19T03:54:49.430Z,40.9
2019-05-19T03:55:47.611Z,40.9
2019-05-19T03:56:44.666Z,40.9
2019-05-19T03:57:43.707Z,40.9
2019-05-19T03:58:47.843Z,40.8
2019-05-19T03:59:44.520Z,40.9
2019-05-19T04:00:41.263Z,40.9
2019-05-19T04:01:41.185Z,40.9
2019-05-19T04:02:39.639Z,40.9
2019-05-19T04:03:42.324Z,40.8
2019-05-19T04:04:39.786Z,40.9
2019-05-19T04:05:36.803Z,40.9
2019-05-19T04:06:34.001Z,40.8
2019-05-19T04:07:33.183Z,40.8
2019-05-19T04:08:31.975Z,40.8
2019-05-19T04:09:29.099Z,40.8
2019-05-19T04:10:31.694Z,40.8
2019-05-19T04:11:28.836Z,40.8
2019-05-19T04:12:25.422Z,40.8
2019-05-19T04:13:22.746Z,40.8
2019-05-19T04:14:23.052Z,40.8
2019-05-19T04:15:21.203Z,40.8
2019-05-19T04:16:18.128Z,40.8
2019-05-19T04:17:25.609Z,40.8
2019-05-19T04:18:25.232Z,40.8
2019-05-19T04:19:22.458Z,40.8
2019-05-19T04:20:21.404Z,40.8
2019-05-19T04:21:20.030Z,40.8
2019-05-19T04:22:17.052Z,40.8
2019-05-19T04:23:21.710Z,40.8
2019-05-19T04:24:19.945Z,40.8
2019-05-19T04:25:16.721Z,40.8
2019-05-19T04:26:15.869Z,40.8
2019-05-19T04:27:12.510Z,40.8
2019-05-19T04:28:09.229Z,40.8
2019-05-19T04:29:07.545Z,40.8
2019-05-19T04:30:08.542Z,40.8
2019-05-19T04:31:09.151Z,40.9
2019-05-19T04:32:07.159Z,40.9
2019-05-19T04:33:03.753Z,40.9
2019-05-19T04:34:02.231Z,40.9
2019-05-19T04:35:00.719Z,40.9
2019-05-19T04:35:57.798Z,41
2019-05-19T04:36:54.937Z,41
2019-05-19T04:37:55.279Z,41
2019-05-19T04:38:52.127Z,41
2019-05-19T04:39:48.959Z,41
2019-05-19T04:40:46.764Z,41
2019-05-19T04:41:45.958Z,41
2019-05-19T04:42:42.540Z,40.9
2019-05-19T04:43:40.798Z,40.9
2019-05-19T04:44:50.480Z,40.9
2019-05-19T04:45:48.079Z,40.9
2019-05-19T04:46:45.132Z,40.9
2019-05-19T04:47:44.903Z,40.9
2019-05-19T04:48:42.711Z,40.9
2019-05-19T04:49:41.113Z,40.9
2019-05-19T04:50:47.127Z,40.9
2019-05-19T04:51:46.905Z,40.9
2019-05-19T04:52:44.078Z,40.9
2019-05-19T04:53:40.832Z,40.9
2019-05-19T04:54:40.049Z,40.9
2019-05-19T04:55:40.447Z,40.8
2019-05-19T04:56:39.880Z,40.9
2019-05-19T04:57:37.461Z,40.9
2019-05-19T04:58:37.829Z,40.8
2019-05-19T04:59:38.061Z,40.9
2019-05-19T05:00:40.395Z,40.9
2019-05-19T05:01:39.872Z,40.9
2019-05-19T05:02:38.981Z,40.8
2019-05-19T05:03:36.826Z,40.8
2019-05-19T05:04:33.425Z,40.8
2019-05-19T05:05:30.571Z,40.9
2019-05-19T05:06:28.402Z,40.8
2019-05-19T05:07:26.794Z,40.8
2019-05-19T05:08:30.826Z,40.9
2019-05-19T05:09:33.190Z,40.9
2019-05-19T05:10:32.290Z,40.7
2019-05-19T05:11:29.361Z,40.8
2019-05-19T05:12:28.998Z,40.8
2019-05-19T05:13:28.939Z,40.7
2019-05-19T05:14:30.672Z,40.8
2019-05-19T05:15:29.370Z,40.8
2019-05-19T05:16:31.220Z,40.8
2019-05-19T05:17:33.114Z,40.8
2019-05-19T05:18:36.255Z,40.8
2019-05-19T05:19:34.618Z,40.8
2019-05-19T05:20:38.465Z,40.8
2019-05-19T05:21:39.818Z,40.8
2019-05-19T05:22:36.777Z,40.8
2019-05-19T05:23:33.426Z,40.8
2019-05-19T05:24:30.701Z,40.8
2019-05-19T05:25:28.794Z,40.8
2019-05-19T05:26:30.399Z,40.8
2019-05-19T05:27:29.046Z,40.7
2019-05-19T05:28:33.537Z,40.8
2019-05-19T05:29:36.435Z,40.7
2019-05-19T05:30:33.217Z,40.7
2019-05-19T05:31:29.838Z,40.7
2019-05-19T05:32:28.909Z,40.8
2019-05-19T05:33:26.010Z,40.8
2019-05-19T05:34:25.526Z,40.8
2019-05-19T05:35:22.281Z,40.8
2019-05-19T05:36:21.165Z,40.8
2019-05-19T05:37:18.880Z,40.8
2019-05-19T05:38:17.683Z,40.8
2019-05-19T05:39:15.263Z,40.8
2019-05-19T05:40:18.569Z,40.8
2019-05-19T05:41:15.138Z,40.8
2019-05-19T05:42:14.275Z,40.8
2019-05-19T05:43:11.124Z,40.8
2019-05-19T05:44:08.370Z,40.8
2019-05-19T05:45:05.559Z,40.8
2019-05-19T05:46:04.722Z,40.9
2019-05-19T05:47:07.100Z,41
2019-05-19T05:48:10.489Z,41
2019-05-19T05:49:19.120Z,41.1
2019-05-19T05:50:16.319Z,41.2
2019-05-19T05:51:15.202Z,41.2
2019-05-19T05:52:15.841Z,41.2
2019-05-19T05:53:13.133Z,41.2
2019-05-19T05:54:16.128Z,41.2
2019-05-19T05:55:15.500Z,41.3
2019-05-19T05:56:14.106Z,41.3
2019-05-19T05:57:13.270Z,41.4
2019-05-19T05:58:12.290Z,41.5
2019-05-19T05:59:15.129Z,41.5
2019-05-19T06:00:16.163Z,41.7
2019-05-19T06:01:13.244Z,41.7
2019-05-19T06:02:10.533Z,41.8
2019-05-19T06:03:12.088Z,41.8
2019-05-19T06:04:11.715Z,41.9
2019-05-19T06:05:09.355Z,41.9
2019-05-19T06:06:09.244Z,42
2019-05-19T06:07:10.091Z,42
2019-05-19T06:08:07.441Z,42
2019-05-19T06:09:04.184Z,42
2019-05-19T06:10:01.198Z,42.1
2019-05-19T06:11:04.406Z,42.1
2019-05-19T06:12:05.751Z,42.2
2019-05-19T06:13:04.663Z,42.2
2019-05-19T06:14:03.579Z,42.2
2019-05-19T06:15:02.459Z,42.3
2019-05-19T06:15:59.959Z,42.2
2019-05-19T06:16:56.593Z,42.2
2019-05-19T06:17:55.633Z,42.2
2019-05-19T06:18:53.018Z,42.3
2019-05-19T06:19:51.383Z,42.4
2019-05-19T06:20:52.227Z,42.3
2019-05-19T06:21:48.933Z,42.3
2019-05-19T06:22:56.332Z,42.4
2019-05-19T06:22:57.228Z,42.4
2019-05-19T06:23:53.267Z,42.4
2019-05-19T06:24:59.292Z,42.4
2019-05-19T06:25:55.893Z,42.4
2019-05-19T06:26:54.613Z,42.5
2019-05-19T06:27:53.858Z,42.4
2019-05-19T06:28:52.030Z,42.7
2019-05-19T06:29:48.792Z,42.7
2019-05-19T06:30:46.379Z,42.8
2019-05-19T06:31:50.566Z,42.7
2019-05-19T06:32:53.167Z,42.7
2019-05-19T06:33:50.808Z,42.6
2019-05-19T06:34:48.186Z,42.6
2019-05-19T06:35:45.053Z,42.6
2019-05-19T06:36:44.705Z,42.6
2019-05-19T06:37:41.451Z,42.6
2019-05-19T06:38:40.615Z,42.6
2019-05-19T06:39:38.646Z,42.7
2019-05-19T06:40:36.998Z,42.7
2019-05-19T06:41:38.593Z,42.7
2019-05-19T06:42:37.900Z,42.8
2019-05-19T06:43:35.099Z,42.7
2019-05-19T06:44:35.685Z,42.7
2019-05-19T06:45:33.221Z,42.7
2019-05-19T06:46:31.646Z,42.6
2019-05-19T06:47:32.145Z,42.6
2019-05-19T06:48:29.609Z,42.6
2019-05-19T06:49:28.022Z,42.6
2019-05-19T06:50:25.271Z,42.6
2019-05-19T06:51:24.083Z,42.5
2019-05-19T06:52:21.258Z,42.5
2019-05-19T06:53:21.814Z,42.5
2019-05-19T06:54:19.581Z,42.5
2019-05-19T06:55:18.535Z,42.5
2019-05-19T06:56:16.440Z,42.5
2019-05-19T06:57:17.938Z,42.4
2019-05-19T06:58:16.805Z,42.4
2019-05-19T06:59:14.137Z,42.4
2019-05-19T07:00:20.008Z,42.4
2019-05-19T07:01:17.649Z,42.3
2019-05-19T07:02:16.597Z,42.3
2019-05-19T07:03:16.346Z,42.3
2019-05-19T07:04:03.799Z,42.3
2019-05-19T07:05:01.157Z,42.4
2019-05-19T07:05:58.761Z,42.4
2019-05-19T07:06:58.684Z,42.5
2019-05-19T07:07:55.694Z,42.5
2019-05-19T07:08:55.022Z,42.5
2019-05-19T07:09:58.536Z,42.6
2019-05-19T07:09:58.686Z,42.6
2019-05-19T07:10:50.870Z,43
2019-05-19T07:11:51.657Z,42.9
2019-05-19T07:12:53.160Z,42.7
2019-05-19T07:13:50.716Z,42.7
2019-05-19T07:14:47.471Z,42.6
2019-05-19T07:15:48.830Z,42.6
2019-05-19T07:16:45.839Z,42.9
2019-05-19T07:17:43.208Z,43
2019-05-19T07:18:41.776Z,43
2019-05-19T07:19:39.454Z,43
2019-05-19T07:20:38.012Z,43
2019-05-19T07:21:35.861Z,43
2019-05-19T07:22:37.294Z,43.1
2019-05-19T07:23:32.663Z,43.2
2019-05-19T07:24:37.197Z,43.3
2019-05-19T07:25:34.015Z,43.4
2019-05-19T07:26:31.462Z,43.3
2019-05-19T07:27:32.649Z,43.2
2019-05-19T07:28:33.164Z,43
2019-05-19T07:29:30.281Z,43
2019-05-19T07:30:29.279Z,42.9
2019-05-19T07:31:29.318Z,43.1
2019-05-19T07:32:26.800Z,43
2019-05-19T07:33:30.804Z,43
2019-05-19T07:34:27.668Z,43.1
2019-05-19T07:35:26.296Z,43.1
2019-05-19T07:36:24.440Z,43
2019-05-19T07:37:27.420Z,43
2019-05-19T07:38:26.928Z,43
2019-05-19T07:39:34.006Z,43
2019-05-19T07:40:34.578Z,42.9
2019-05-19T07:41:33.336Z,42.9
2019-05-19T07:42:30.227Z,42.9
2019-05-19T07:43:27.373Z,43
2019-05-19T07:44:25.529Z,43.1
2019-05-19T07:45:22.965Z,43.1
2019-05-19T07:46:24.916Z,43.2
2019-05-19T07:47:26.673Z,43.3
2019-05-19T07:48:26.619Z,43.5
2019-05-19T07:49:28.555Z,43.7
2019-05-19T07:50:26.763Z,43.6
2019-05-19T07:51:24.205Z,43.8
2019-05-19T07:52:21.125Z,44
2019-05-19T07:53:18.802Z,44.1
2019-05-19T07:54:25.356Z,43.8
2019-05-19T07:55:24.647Z,43.9
2019-05-19T07:56:23.545Z,43.9
2019-05-19T07:57:20.257Z,43.9
2019-05-19T07:58:18.249Z,43.7
2019-05-19T07:59:16.766Z,43.7
2019-05-19T08:00:14.316Z,43.8
2019-05-19T08:01:12.451Z,43.8
2019-05-19T08:02:09.691Z,43.8
2019-05-19T08:03:06.705Z,43.8
2019-05-19T08:04:06.699Z,43.8
2019-05-19T08:05:04.702Z,43.8
2019-05-19T08:06:02.308Z,43.8
2019-05-19T08:07:00.178Z,43.8
2019-05-19T08:07:57.008Z,43.8
2019-05-19T08:08:55.420Z,43.8
2019-05-19T08:09:53.718Z,43.8
2019-05-19T08:11:00.844Z,43.8
2019-05-19T08:12:03.096Z,43.9
2019-05-19T08:13:03.582Z,43.8
2019-05-19T08:14:00.773Z,43.8
2019-05-19T08:15:01.622Z,43.8
2019-05-19T08:15:59.237Z,43.8
2019-05-19T08:16:59.477Z,43.8
2019-05-19T08:18:00.952Z,43.8
2019-05-19T08:18:58.982Z,43.9
2019-05-19T08:20:00.043Z,43.9
2019-05-19T08:20:58.254Z,43.9
2019-05-19T08:21:54.766Z,43.9
2019-05-19T08:22:52.509Z,43.9
2019-05-19T08:23:59.768Z,43.9
2019-05-19T08:24:00.587Z,43.9
2019-05-19T08:24:01.167Z,43.9
2019-05-19T08:24:49.088Z,43.9
2019-05-19T08:25:49.413Z,43.9
2019-05-19T08:26:56.356Z,43.9
2019-05-19T08:27:53.551Z,43.9
2019-05-19T08:28:50.355Z,43.9
2019-05-19T08:29:47.867Z,43.9
2019-05-19T08:30:52.855Z,43.9
2019-05-19T08:31:52.255Z,43.9
2019-05-19T08:32:55.036Z,43.9
2019-05-19T08:33:52.441Z,43.9
2019-05-19T08:34:50.156Z,43.9
2019-05-19T08:35:55.856Z,43.9
2019-05-19T08:36:54.811Z,43.9
2019-05-19T08:37:52.998Z,43.9
2019-05-19T08:38:49.851Z,43.9
2019-05-19T08:41:17.521Z,43.8
2019-05-19T08:42:16.183Z,43.8
2019-05-19T08:43:17.418Z,43.8
2019-05-19T08:44:20.472Z,43.7
2019-05-19T08:45:19.092Z,43.8
2019-05-19T08:46:19.953Z,43.7
2019-05-19T08:47:18.659Z,43.7
2019-05-19T08:48:17.082Z,43.7
2019-05-19T08:49:15.936Z,43.7
2019-05-19T08:50:15.941Z,43.7
2019-05-19T08:51:16.832Z,43.8
2019-05-19T08:52:21.236Z,43.8
2019-05-19T08:53:20.956Z,43.8
2019-05-19T08:54:20.959Z,43.6
2019-05-19T08:55:25.544Z,43.7
2019-05-19T08:56:25.485Z,43.7
2019-05-19T08:57:25.509Z,43.7
2019-05-19T08:58:25.553Z,43.7
2019-05-19T08:59:25.367Z,43.6
2019-05-19T09:00:27.560Z,43.6
2019-05-19T09:01:31.072Z,43.6
2019-05-19T09:02:31.578Z,43.6
2019-05-19T09:03:29.873Z,43.6
2019-05-19T09:04:29.427Z,43.6
2019-05-19T09:05:36.880Z,43.6
2019-05-19T09:06:35.853Z,43.6
2019-05-19T09:07:34.546Z,43.5
2019-05-19T09:08:35.985Z,43.5
2019-05-19T09:09:40.136Z,43.5
2019-05-19T09:10:47.596Z,43.5
2019-05-19T09:11:47.975Z,43.4
2019-05-19T09:12:45.956Z,43.5
2019-05-19T09:13:45.222Z,43.4
2019-05-19T09:14:48.283Z,43.4
2019-05-19T09:15:46.796Z,43.4
2019-05-19T09:16:44.950Z,43.4
2019-05-19T09:17:45.656Z,43.4
2019-05-19T09:18:48.499Z,43.4
2019-05-19T09:19:47.840Z,43.4
2019-05-19T09:20:50.616Z,43.3
2019-05-19T09:21:51.617Z,43.3
2019-05-19T09:22:50.073Z,43.3
2019-05-19T09:23:58.563Z,43.3
2019-05-19T09:24:59.843Z,43.3
2019-05-19T09:25:59.063Z,43.2
2019-05-19T09:26:57.397Z,43.3
2019-05-19T09:27:56.163Z,43.2
2019-05-19T09:28:55.184Z,43.2
2019-05-19T09:29:59.221Z,43.2
2019-05-19T09:31:04.499Z,43.2
2019-05-19T09:32:11.917Z,43.2
2019-05-19T09:33:11.094Z,43.1
2019-05-19T09:34:16.477Z,43.2
2019-05-19T09:35:16.222Z,43.2
2019-05-19T09:36:14.393Z,43.1
2019-05-19T09:37:13.453Z,43.2
2019-05-19T09:38:12.477Z,43.2
2019-05-19T09:39:19.336Z,43.2
2019-05-19T09:40:20.248Z,43.1
2019-05-19T09:41:21.670Z,43.1
2019-05-19T09:42:23.259Z,43.1
2019-05-19T09:43:23.752Z,43.1
2019-05-19T09:44:21.797Z,43.1
2019-05-19T09:45:20.247Z,43.1
2019-05-19T09:46:20.836Z,43.1
2019-05-19T09:47:20.041Z,43
2019-05-19T09:48:30.606Z,43
2019-05-19T09:49:24.482Z,43
2019-05-19T09:50:35.385Z,43
2019-05-19T09:51:41.717Z,43
2019-05-19T09:52:42.060Z,43
2019-05-19T09:53:40.389Z,42.9
2019-05-19T09:54:45.104Z,42.9
2019-05-19T09:54:45.954Z,42.9
2019-05-19T09:55:44.054Z,42.9
2019-05-19T09:56:43.366Z,42.9
2019-05-19T09:57:42.606Z,42.9
2019-05-19T09:58:50.185Z,42.9
2019-05-19T09:59:51.060Z,42.9
2019-05-19T10:00:49.338Z,42.9
2019-05-19T10:01:51.115Z,42.9
2019-05-19T10:02:55.295Z,42.9
2019-05-19T10:03:55.790Z,42.9
2019-05-19T10:05:07.267Z,42.9
2019-05-19T10:06:08.090Z,42.9
2019-05-19T10:07:08.351Z,42.9
2019-05-19T10:08:06.203Z,42.8
2019-05-19T10:09:17.813Z,42.8
2019-05-19T10:10:18.193Z,42.9
2019-05-19T10:11:22.277Z,42.8
2019-05-19T10:12:22.990Z,42.8
2019-05-19T10:13:23.054Z,42.9
2019-05-19T10:14:26.196Z,42.9
2019-05-19T10:15:24.243Z,42.8
2019-05-19T10:16:24.085Z,42.8
2019-05-19T10:17:24.316Z,42.8
2019-05-19T10:18:26.139Z,42.8
2019-05-19T10:19:27.198Z,42.8
2019-05-19T10:20:25.744Z,42.8
2019-05-19T10:21:24.480Z,42.8
2019-05-19T10:22:23.684Z,42.7
2019-05-19T10:23:22.006Z,42.7
2019-05-19T10:24:21.503Z,42.8
2019-05-19T10:25:23.665Z,42.8
2019-05-19T10:26:24.677Z,42.9
2019-05-19T10:27:25.304Z,42.8
2019-05-19T10:28:31.376Z,42.8
2019-05-19T10:29:33.912Z,42.8
2019-05-19T10:30:35.271Z,42.9
2019-05-19T10:31:36.682Z,42.8
2019-05-19T10:32:41.660Z,42.8
2019-05-19T10:33:41.557Z,42.8
2019-05-19T10:34:41.518Z,42.8
2019-05-19T10:35:43.366Z,42.8
2019-05-19T10:36:46.484Z,42.8
2019-05-19T10:37:45.851Z,42.8
2019-05-19T10:38:47.707Z,42.8
2019-05-19T10:39:55.474Z,42.8
2019-05-19T10:40:59.754Z,42.8
2019-05-19T10:41:58.919Z,42.8
2019-05-19T10:43:01.665Z,42.8
2019-05-19T10:44:02.791Z,42.8
2019-05-19T10:45:03.162Z,42.8
2019-05-19T10:46:08.803Z,42.8
2019-05-19T10:47:15.883Z,42.8
2019-05-19T10:48:17.460Z,42.7
2019-05-19T10:49:20.703Z,42.7
2019-05-19T10:50:18.940Z,42.7
2019-05-19T10:51:19.169Z,42.7
2019-05-19T10:52:19.714Z,42.7
2019-05-19T10:53:20.967Z,42.7
2019-05-19T10:54:19.098Z,42.7
2019-05-19T10:55:17.465Z,42.7
2019-05-19T10:56:19.293Z,42.7
2019-05-19T10:57:17.959Z,42.7
2019-05-19T10:58:18.401Z,42.7
2019-05-19T10:59:18.461Z,42.7
2019-05-19T11:00:17.383Z,42.7
2019-05-19T11:01:19.497Z,42.7
2019-05-19T11:02:18.646Z,42.7
2019-05-19T11:03:18.981Z,42.6
2019-05-19T11:04:18.708Z,42.6
2019-05-19T11:05:23.279Z,42.7
2019-05-19T11:06:22.280Z,42.7
2019-05-19T11:07:22.526Z,42.7
2019-05-19T11:08:26.370Z,42.7
2019-05-19T11:09:26.191Z,42.6
2019-05-19T11:10:27.294Z,42.6
2019-05-19T11:11:26.142Z,42.6
2019-05-19T11:12:30.466Z,42.6
2019-05-19T11:13:34.207Z,42.6
2019-05-19T11:14:34.524Z,42.6
2019-05-19T11:15:32.653Z,42.6
2019-05-19T11:16:33.622Z,42.6
2019-05-19T11:17:39.334Z,42.6
2019-05-19T11:18:41.125Z,42.6
2019-05-19T11:19:43.093Z,42.6
2019-05-19T11:20:42.069Z,42.6
2019-05-19T11:21:43.021Z,42.6
2019-05-19T11:22:42.231Z,42.6
2019-05-19T11:23:40.425Z,42.6
2019-05-19T11:24:41.900Z,42.5
2019-05-19T11:25:50.687Z,42.6
2019-05-19T11:25:51.197Z,42.6
2019-05-19T11:25:51.336Z,42.6
2019-05-19T11:26:44.519Z,42.6
2019-05-19T11:27:43.038Z,42.6
2019-05-19T11:28:47.869Z,42.6
2019-05-19T11:29:48.946Z,42.6
2019-05-19T11:30:48.401Z,42.6
2019-05-19T11:31:48.023Z,42.5
2019-05-19T11:32:46.195Z,42.5
2019-05-19T11:33:51.139Z,42.5
2019-05-19T11:34:56.607Z,42.5
2019-05-19T11:35:55.136Z,42.5
2019-05-19T11:36:55.937Z,42.5
2019-05-19T11:37:56.131Z,42.5
2019-05-19T11:38:55.706Z,42.5
2019-05-19T11:39:54.112Z,42.5
2019-05-19T11:40:52.783Z,42.5
2019-05-19T11:41:53.474Z,42.5
2019-05-19T11:42:54.828Z,42.5
2019-05-19T11:43:53.339Z,42.5
2019-05-19T11:45:02.506Z,42.5
2019-05-19T11:46:01.620Z,42.5
2019-05-19T11:47:00.813Z,42.4
2019-05-19T11:48:01.056Z,42.4
2019-05-19T11:49:06.245Z,42.4
2019-05-19T11:50:04.814Z,42.5
2019-05-19T11:51:03.520Z,42.5
2019-05-19T11:52:08.246Z,42.4
2019-05-19T11:53:15.082Z,42.5
2019-05-19T11:54:15.996Z,42.4
2019-05-19T11:55:20.665Z,42.4
2019-05-19T11:56:20.556Z,42.4
2019-05-19T11:57:26.077Z,42.4
2019-05-19T11:58:24.583Z,42.4
2019-05-19T11:59:27.148Z,42.4
2019-05-19T12:00:27.559Z,42.4
2019-05-19T12:01:25.913Z,42.4
2019-05-19T12:02:25.219Z,42.3
2019-05-19T12:03:28.915Z,42.3
2019-05-19T12:04:29.714Z,42.4
2019-05-19T12:05:28.975Z,42.4
2019-05-19T12:06:38.772Z,42.3
2019-05-19T12:06:39.614Z,42.3
2019-05-19T12:06:39.862Z,42.3
2019-05-19T12:07:26.823Z,42.3
2019-05-19T12:08:26.137Z,42.3
2019-05-19T12:09:25.679Z,42.3
2019-05-19T12:10:24.202Z,42.3
2019-05-19T12:11:22.851Z,42.3
2019-05-19T12:12:26.949Z,42.3
2019-05-19T12:13:27.863Z,42.3
2019-05-19T12:14:29.585Z,42.3
2019-05-19T12:15:35.050Z,42.3
2019-05-19T12:16:34.365Z,42.2
2019-05-19T12:17:35.367Z,42.2
2019-05-19T12:18:35.363Z,42.2
2019-05-19T12:19:35.648Z,42.3
2019-05-19T12:20:36.515Z,42.3
2019-05-19T12:21:37.753Z,42.2
2019-05-19T12:22:37.884Z,42.2
2019-05-19T12:23:36.509Z,42.2
2019-05-19T12:24:39.491Z,42.2
2019-05-19T12:25:37.848Z,42.2
2019-05-19T12:26:39.691Z,42.2
2019-05-19T12:27:39.021Z,42.2
2019-05-19T12:28:38.656Z,42.2
2019-05-19T12:29:37.728Z,42.2
2019-05-19T12:30:37.517Z,42.2
2019-05-19T12:31:36.797Z,42.2
2019-05-19T12:32:39.519Z,42.2
2019-05-19T12:33:51.081Z,42.2
2019-05-19T12:33:51.637Z,42.2
2019-05-19T12:33:51.803Z,42.2
2019-05-19T12:34:37.226Z,42.2
2019-05-19T12:35:40.128Z,42.2
2019-05-19T12:36:42.677Z,42.2
2019-05-19T12:37:43.569Z,42.2
2019-05-19T12:38:46.425Z,42.2
2019-05-19T12:39:46.018Z,42.2
2019-05-19T12:40:44.760Z,42.2
2019-05-19T12:41:44.907Z,42.2
2019-05-19T12:42:46.687Z,42.2
2019-05-19T12:43:45.392Z,42.2
2019-05-19T12:44:54.333Z,42.2
2019-05-19T12:45:53.489Z,42.2
2019-05-19T12:46:53.637Z,42.2
2019-05-19T12:47:52.663Z,42.2
2019-05-19T12:48:51.163Z,42.2
2019-05-19T12:49:49.415Z,42.2
2019-05-19T12:50:47.813Z,42.2
2019-05-19T12:51:49.927Z,42.2
2019-05-19T12:52:50.140Z,42.2
2019-05-19T12:53:51.527Z,42.2
2019-05-19T12:54:52.388Z,42.2
2019-05-19T12:55:53.112Z,42.2
2019-05-19T12:56:52.387Z,42.2
2019-05-19T12:57:52.937Z,42.2
2019-05-19T12:59:00.311Z,42.2
2019-05-19T12:59:59.014Z,42.2
2019-05-19T13:01:00.872Z,42.2
2019-05-19T13:02:00.888Z,42.2
2019-05-19T13:03:00.025Z,42.2
2019-05-19T13:03:59.170Z,42.2
2019-05-19T13:05:05.105Z,42.2
2019-05-19T13:05:06.199Z,42.2
2019-05-19T13:05:58.704Z,42.2